sensor_id;sensor_type;location;lat;lon;timestamp;P1;durP1;ratioP1;P2;durP2;ratioP2
71413;SDS011;59226;53.212;5.728;2023-02-22T00:01:40;15.77;;;5.07;;
71413;SDS011;59226;53.212;5.728;2023-02-22T00:04:14;17.48;;;5.97;;
71413;SDS011;59226;53.212;5.728;2023-02-22T00:06:44;13.88;;;4.80;;
71413;SDS011;59226;53.212;5.728;2023-02-22T00:09:09;18.37;;;4.63;;
71413;SDS011;59226;53.212;5.728;2023-02-22T00:11:35;18.27;;;6.00;;
71413;SDS011;59226;53.212;5.728;2023-02-22T00:14:02;19.40;;;5.83;;
71413;SDS011;59226;53.212;5.728;2023-02-22T00:16:27;13.50;;;4.67;;
71413;SDS011;59226;53.212;5.728;2023-02-22T00:18:54;13.53;;;5.27;;
71413;SDS011;59226;53.212;5.728;2023-02-22T00:21:20;14.73;;;6.70;;
71413;SDS011;59226;53.212;5.728;2023-02-22T00:23:46;12.82;;;4.75;;
71413;SDS011;59226;53.212;5.728;2023-02-22T00:26:15;13.70;;;5.50;;
71413;SDS011;59226;53.212;5.728;2023-02-22T00:28:42;16.10;;;4.67;;
71413;SDS011;59226;53.212;5.728;2023-02-22T00:31:08;14.85;;;4.72;;
71413;SDS011;59226;53.212;5.728;2023-02-22T00:33:33;12.10;;;4.87;;
71413;SDS011;59226;53.212;5.728;2023-02-22T00:36:00;14.75;;;5.43;;
71413;SDS011;59226;53.212;5.728;2023-02-22T00:38:26;15.37;;;5.03;;
71413;SDS011;59226;53.212;5.728;2023-02-22T00:40:51;15.33;;;5.53;;
71413;SDS011;59226;53.212;5.728;2023-02-22T00:43:16;18.07;;;5.23;;
71413;SDS011;59226;53.212;5.728;2023-02-22T00:45:41;14.87;;;6.27;;
71413;SDS011;59226;53.212;5.728;2023-02-22T00:48:07;15.83;;;6.63;;
71413;SDS011;59226;53.212;5.728;2023-02-22T00:50:32;13.98;;;5.35;;
71413;SDS011;59226;53.212;5.728;2023-02-22T00:52:58;16.47;;;5.57;;
71413;SDS011;59226;53.212;5.728;2023-02-22T00:55:25;10.90;;;4.65;;
71413;SDS011;59226;53.212;5.728;2023-02-22T00:57:51;15.35;;;4.53;;
71413;SDS011;59226;53.212;5.728;2023-02-22T01:00:17;10.83;;;4.67;;
71413;SDS011;59226;53.212;5.728;2023-02-22T01:02:43;12.88;;;4.15;;
71413;SDS011;59226;53.212;5.728;2023-02-22T01:05:10;9.50;;;3.27;;
71413;SDS011;59226;53.212;5.728;2023-02-22T01:07:38;14.05;;;4.72;;
71413;SDS011;59226;53.212;5.728;2023-02-22T01:10:04;15.00;;;5.03;;
71413;SDS011;59226;53.212;5.728;2023-02-22T01:12:30;8.93;;;4.28;;
71413;SDS011;59226;53.212;5.728;2023-02-22T01:14:55;8.13;;;3.40;;
71413;SDS011;59226;53.212;5.728;2023-02-22T01:17:21;12.10;;;5.80;;
71413;SDS011;59226;53.212;5.728;2023-02-22T01:19:46;9.85;;;4.00;;
71413;SDS011;59226;53.212;5.728;2023-02-22T01:22:12;6.20;;;2.90;;
71413;SDS011;59226;53.212;5.728;2023-02-22T01:24:37;10.23;;;3.83;;
71413;SDS011;59226;53.212;5.728;2023-02-22T01:27:02;11.07;;;4.67;;
71413;SDS011;59226;53.212;5.728;2023-02-22T01:29:27;10.00;;;4.20;;
71413;SDS011;59226;53.212;5.728;2023-02-22T01:31:53;10.03;;;3.87;;
71413;SDS011;59226;53.212;5.728;2023-02-22T01:34:20;13.38;;;4.70;;
71413;SDS011;59226;53.212;5.728;2023-02-22T01:36:45;8.57;;;4.05;;
71413;SDS011;59226;53.212;5.728;2023-02-22T01:39:10;10.03;;;4.77;;
71413;SDS011;59226;53.212;5.728;2023-02-22T01:41:36;14.00;;;3.87;;
71413;SDS011;59226;53.212;5.728;2023-02-22T01:46:46;12.32;;;4.38;;
71413;SDS011;59226;53.212;5.728;2023-02-22T01:49:12;12.83;;;4.20;;
71413;SDS011;59226;53.212;5.728;2023-02-22T01:51:39;10.50;;;4.10;;
71413;SDS011;59226;53.212;5.728;2023-02-22T01:54:09;11.23;;;4.20;;
71413;SDS011;59226;53.212;5.728;2023-02-22T01:56:37;11.55;;;3.40;;
71413;SDS011;59226;53.212;5.728;2023-02-22T01:59:07;7.68;;;3.97;;
71413;SDS011;59226;53.212;5.728;2023-02-22T02:01:33;13.52;;;3.60;;
71413;SDS011;59226;53.212;5.728;2023-02-22T02:04:00;17.02;;;5.30;;
71413;SDS011;59226;53.212;5.728;2023-02-22T02:06:28;9.47;;;5.20;;
71413;SDS011;59226;53.212;5.728;2023-02-22T02:08:59;13.60;;;4.50;;
71413;SDS011;59226;53.212;5.728;2023-02-22T02:11:26;10.30;;;3.95;;
71413;SDS011;59226;53.212;5.728;2023-02-22T02:13:53;10.27;;;3.23;;
71413;SDS011;59226;53.212;5.728;2023-02-22T02:16:19;8.20;;;3.55;;
71413;SDS011;59226;53.212;5.728;2023-02-22T02:18:45;9.80;;;4.00;;
71413;SDS011;59226;53.212;5.728;2023-02-22T02:29:12;7.70;;;3.13;;
71413;SDS011;59226;53.212;5.728;2023-02-22T02:39:38;11.93;;;2.97;;
71413;SDS011;59226;53.212;5.728;2023-02-22T02:42:06;10.88;;;4.07;;
71413;SDS011;59226;53.212;5.728;2023-02-22T02:44:33;15.45;;;4.28;;
71413;SDS011;59226;53.212;5.728;2023-02-22T02:49:35;11.00;;;4.27;;
71413;SDS011;59226;53.212;5.728;2023-02-22T02:52:02;10.45;;;2.97;;
71413;SDS011;59226;53.212;5.728;2023-02-22T02:54:27;11.52;;;4.25;;
71413;SDS011;59226;53.212;5.728;2023-02-22T02:56:53;10.33;;;3.07;;
71413;SDS011;59226;53.212;5.728;2023-02-22T02:59:23;13.30;;;3.63;;
71413;SDS011;59226;53.212;5.728;2023-02-22T03:01:58;10.07;;;3.90;;
71413;SDS011;59226;53.212;5.728;2023-02-22T03:06:56;12.80;;;4.83;;
71413;SDS011;59226;53.212;5.728;2023-02-22T03:09:36;8.23;;;3.10;;
71413;SDS011;59226;53.212;5.728;2023-02-22T03:14:41;9.52;;;4.32;;
71413;SDS011;59226;53.212;5.728;2023-02-22T03:17:15;8.45;;;3.10;;
71413;SDS011;59226;53.212;5.728;2023-02-22T03:19:54;10.75;;;3.28;;
71413;SDS011;59226;53.212;5.728;2023-02-22T03:27:27;10.75;;;4.07;;
71413;SDS011;59226;53.212;5.728;2023-02-22T03:29:58;15.43;;;5.72;;
71413;SDS011;59226;53.212;5.728;2023-02-22T03:32:26;8.85;;;3.67;;
71413;SDS011;59226;53.212;5.728;2023-02-22T03:34:57;13.33;;;3.43;;
71413;SDS011;59226;53.212;5.728;2023-02-22T03:37:24;5.70;;;2.90;;
71413;SDS011;59226;53.212;5.728;2023-02-22T03:39:52;13.57;;;4.35;;
71413;SDS011;59226;53.212;5.728;2023-02-22T03:42:31;11.38;;;3.25;;
71413;SDS011;59226;53.212;5.728;2023-02-22T03:44:59;8.80;;;3.63;;
71413;SDS011;59226;53.212;5.728;2023-02-22T03:47:29;15.80;;;4.50;;
71413;SDS011;59226;53.212;5.728;2023-02-22T03:49:57;8.95;;;2.67;;
71413;SDS011;59226;53.212;5.728;2023-02-22T03:52:23;8.60;;;3.70;;
71413;SDS011;59226;53.212;5.728;2023-02-22T03:54:49;12.20;;;3.43;;
71413;SDS011;59226;53.212;5.728;2023-02-22T03:57:34;12.73;;;4.20;;
71413;SDS011;59226;53.212;5.728;2023-02-22T04:00:00;10.32;;;4.20;;
71413;SDS011;59226;53.212;5.728;2023-02-22T04:02:25;10.87;;;3.70;;
71413;SDS011;59226;53.212;5.728;2023-02-22T04:04:51;9.93;;;4.07;;
71413;SDS011;59226;53.212;5.728;2023-02-22T04:07:16;6.90;;;3.10;;
71413;SDS011;59226;53.212;5.728;2023-02-22T04:09:41;8.63;;;3.13;;
71413;SDS011;59226;53.212;5.728;2023-02-22T04:12:06;10.03;;;3.00;;
71413;SDS011;59226;53.212;5.728;2023-02-22T04:14:32;8.88;;;3.20;;
71413;SDS011;59226;53.212;5.728;2023-02-22T04:16:57;7.97;;;2.77;;
71413;SDS011;59226;53.212;5.728;2023-02-22T04:19:23;12.17;;;3.77;;
71413;SDS011;59226;53.212;5.728;2023-02-22T04:21:48;13.23;;;4.43;;
71413;SDS011;59226;53.212;5.728;2023-02-22T04:24:13;13.00;;;4.33;;
71413;SDS011;59226;53.212;5.728;2023-02-22T04:26:39;6.87;;;2.77;;
71413;SDS011;59226;53.212;5.728;2023-02-22T04:29:04;7.07;;;2.47;;
71413;SDS011;59226;53.212;5.728;2023-02-22T04:31:29;10.80;;;4.10;;
71413;SDS011;59226;53.212;5.728;2023-02-22T04:33:55;12.77;;;4.13;;
71413;SDS011;59226;53.212;5.728;2023-02-22T04:36:20;9.60;;;3.97;;
71413;SDS011;59226;53.212;5.728;2023-02-22T04:38:46;11.98;;;2.85;;
71413;SDS011;59226;53.212;5.728;2023-02-22T04:41:11;9.83;;;3.37;;
71413;SDS011;59226;53.212;5.728;2023-02-22T04:43:36;10.13;;;3.03;;
71413;SDS011;59226;53.212;5.728;2023-02-22T04:46:02;9.43;;;3.60;;
71413;SDS011;59226;53.212;5.728;2023-02-22T04:48:28;11.65;;;3.47;;
71413;SDS011;59226;53.212;5.728;2023-02-22T04:50:53;10.10;;;4.40;;
71413;SDS011;59226;53.212;5.728;2023-02-22T04:53:18;9.60;;;4.50;;
71413;SDS011;59226;53.212;5.728;2023-02-22T04:55:44;10.13;;;2.60;;
71413;SDS011;59226;53.212;5.728;2023-02-22T04:58:09;10.93;;;3.70;;
71413;SDS011;59226;53.212;5.728;2023-02-22T05:00:34;6.70;;;2.93;;
71413;SDS011;59226;53.212;5.728;2023-02-22T05:02:59;10.17;;;3.60;;
71413;SDS011;59226;53.212;5.728;2023-02-22T05:05:25;11.50;;;3.70;;
71413;SDS011;59226;53.212;5.728;2023-02-22T05:07:50;10.30;;;3.40;;
71413;SDS011;59226;53.212;5.728;2023-02-22T05:10:15;8.20;;;1.90;;
71413;SDS011;59226;53.212;5.728;2023-02-22T05:12:41;8.95;;;4.10;;
71413;SDS011;59226;53.212;5.728;2023-02-22T05:15:06;13.50;;;4.50;;
71413;SDS011;59226;53.212;5.728;2023-02-22T05:17:32;4.83;;;2.40;;
71413;SDS011;59226;53.212;5.728;2023-02-22T05:19:57;8.40;;;4.03;;
71413;SDS011;59226;53.212;5.728;2023-02-22T05:22:22;8.57;;;2.40;;
71413;SDS011;59226;53.212;5.728;2023-02-22T05:24:48;8.07;;;3.47;;
71413;SDS011;59226;53.212;5.728;2023-02-22T05:27:13;10.13;;;2.70;;
71413;SDS011;59226;53.212;5.728;2023-02-22T05:29:39;13.07;;;3.13;;
71413;SDS011;59226;53.212;5.728;2023-02-22T05:32:04;9.43;;;2.58;;
71413;SDS011;59226;53.212;5.728;2023-02-22T05:34:31;7.40;;;3.08;;
71413;SDS011;59226;53.212;5.728;2023-02-22T05:36:56;8.23;;;2.73;;
71413;SDS011;59226;53.212;5.728;2023-02-22T05:39:21;6.63;;;1.97;;
71413;SDS011;59226;53.212;5.728;2023-02-22T05:41:46;12.70;;;3.00;;
71413;SDS011;59226;53.212;5.728;2023-02-22T05:44:12;6.93;;;2.80;;
71413;SDS011;59226;53.212;5.728;2023-02-22T05:46:37;8.43;;;3.07;;
71413;SDS011;59226;53.212;5.728;2023-02-22T05:49:02;5.97;;;2.37;;
71413;SDS011;59226;53.212;5.728;2023-02-22T05:51:27;8.80;;;2.73;;
71413;SDS011;59226;53.212;5.728;2023-02-22T05:53:53;5.40;;;2.20;;
71413;SDS011;59226;53.212;5.728;2023-02-22T05:56:22;6.90;;;3.13;;
71413;SDS011;59226;53.212;5.728;2023-02-22T05:58:47;8.43;;;3.63;;
71413;SDS011;59226;53.212;5.728;2023-02-22T06:01:12;9.48;;;3.03;;
71413;SDS011;59226;53.212;5.728;2023-02-22T06:03:37;5.90;;;2.40;;
71413;SDS011;59226;53.212;5.728;2023-02-22T06:06:03;9.70;;;3.63;;
71413;SDS011;59226;53.212;5.728;2023-02-22T06:08:29;8.57;;;2.93;;
71413;SDS011;59226;53.212;5.728;2023-02-22T06:10:54;7.07;;;3.13;;
71413;SDS011;59226;53.212;5.728;2023-02-22T06:13:19;7.20;;;2.27;;
71413;SDS011;59226;53.212;5.728;2023-02-22T06:15:45;5.67;;;1.97;;
71413;SDS011;59226;53.212;5.728;2023-02-22T06:18:10;8.35;;;2.55;;
71413;SDS011;59226;53.212;5.728;2023-02-22T06:20:35;9.07;;;2.77;;
71413;SDS011;59226;53.212;5.728;2023-02-22T06:23:00;7.17;;;2.97;;
71413;SDS011;59226;53.212;5.728;2023-02-22T06:25:27;6.27;;;3.27;;
71413;SDS011;59226;53.212;5.728;2023-02-22T06:27:52;6.55;;;3.13;;
71413;SDS011;59226;53.212;5.728;2023-02-22T06:30:19;7.97;;;3.67;;
71413;SDS011;59226;53.212;5.728;2023-02-22T06:32:45;10.03;;;3.90;;
71413;SDS011;59226;53.212;5.728;2023-02-22T06:35:10;8.17;;;3.17;;
71413;SDS011;59226;53.212;5.728;2023-02-22T06:37:35;7.97;;;2.13;;
71413;SDS011;59226;53.212;5.728;2023-02-22T06:40:00;9.93;;;2.87;;
71413;SDS011;59226;53.212;5.728;2023-02-22T06:42:26;7.97;;;2.80;;
71413;SDS011;59226;53.212;5.728;2023-02-22T06:44:51;9.63;;;3.00;;
71413;SDS011;59226;53.212;5.728;2023-02-22T06:47:16;8.97;;;2.77;;
71413;SDS011;59226;53.212;5.728;2023-02-22T06:49:42;8.60;;;2.57;;
71413;SDS011;59226;53.212;5.728;2023-02-22T06:52:08;12.93;;;3.57;;
71413;SDS011;59226;53.212;5.728;2023-02-22T06:54:33;6.00;;;2.65;;
71413;SDS011;59226;53.212;5.728;2023-02-22T06:56:59;8.20;;;2.27;;
71413;SDS011;59226;53.212;5.728;2023-02-22T06:59:24;10.10;;;3.07;;
71413;SDS011;59226;53.212;5.728;2023-02-22T07:01:50;10.53;;;3.77;;
71413;SDS011;59226;53.212;5.728;2023-02-22T07:04:15;12.03;;;5.67;;
71413;SDS011;59226;53.212;5.728;2023-02-22T07:06:44;12.03;;;4.37;;
71413;SDS011;59226;53.212;5.728;2023-02-22T07:09:10;13.15;;;5.75;;
71413;SDS011;59226;53.212;5.728;2023-02-22T07:11:37;9.65;;;4.20;;
71413;SDS011;59226;53.212;5.728;2023-02-22T07:14:02;25.37;;;7.13;;
71413;SDS011;59226;53.212;5.728;2023-02-22T07:16:27;16.30;;;6.20;;
71413;SDS011;59226;53.212;5.728;2023-02-22T07:18:53;14.13;;;5.27;;
71413;SDS011;59226;53.212;5.728;2023-02-22T07:21:18;15.40;;;5.67;;
71413;SDS011;59226;53.212;5.728;2023-02-22T07:23:49;18.53;;;6.17;;
71413;SDS011;59226;53.212;5.728;2023-02-22T07:26:14;11.60;;;5.78;;
71413;SDS011;59226;53.212;5.728;2023-02-22T07:28:39;17.27;;;6.70;;
71413;SDS011;59226;53.212;5.728;2023-02-22T07:31:04;14.77;;;7.37;;
71413;SDS011;59226;53.212;5.728;2023-02-22T07:33:29;22.53;;;7.73;;
71413;SDS011;59226;53.212;5.728;2023-02-22T07:35:55;18.50;;;7.10;;
71413;SDS011;59226;53.212;5.728;2023-02-22T07:38:20;16.43;;;5.67;;
71413;SDS011;59226;53.212;5.728;2023-02-22T07:40:45;22.17;;;7.03;;
71413;SDS011;59226;53.212;5.728;2023-02-22T07:43:18;17.87;;;7.13;;
71413;SDS011;59226;53.212;5.728;2023-02-22T07:45:43;20.05;;;8.48;;
71413;SDS011;59226;53.212;5.728;2023-02-22T07:48:09;22.50;;;8.10;;
71413;SDS011;59226;53.212;5.728;2023-02-22T07:50:37;23.33;;;7.97;;
71413;SDS011;59226;53.212;5.728;2023-02-22T07:53:04;14.52;;;6.85;;
71413;SDS011;59226;53.212;5.728;2023-02-22T07:55:30;16.97;;;5.67;;
71413;SDS011;59226;53.212;5.728;2023-02-22T07:57:57;22.60;;;7.45;;
71413;SDS011;59226;53.212;5.728;2023-02-22T08:00:24;21.52;;;9.18;;
71413;SDS011;59226;53.212;5.728;2023-02-22T08:02:50;20.50;;;8.82;;
71413;SDS011;59226;53.212;5.728;2023-02-22T08:05:15;23.50;;;8.23;;
71413;SDS011;59226;53.212;5.728;2023-02-22T08:07:40;19.77;;;8.90;;
71413;SDS011;59226;53.212;5.728;2023-02-22T08:10:07;19.52;;;7.82;;
71413;SDS011;59226;53.212;5.728;2023-02-22T08:12:33;24.58;;;8.88;;
71413;SDS011;59226;53.212;5.728;2023-02-22T08:15:00;17.25;;;7.15;;
71413;SDS011;59226;53.212;5.728;2023-02-22T08:17:25;28.93;;;10.17;;
71413;SDS011;59226;53.212;5.728;2023-02-22T08:19:50;29.37;;;10.50;;
71413;SDS011;59226;53.212;5.728;2023-02-22T08:22:15;19.50;;;8.20;;
71413;SDS011;59226;53.212;5.728;2023-02-22T08:24:40;18.60;;;7.23;;
71413;SDS011;59226;53.212;5.728;2023-02-22T08:27:06;28.00;;;9.30;;
71413;SDS011;59226;53.212;5.728;2023-02-22T08:29:31;22.77;;;8.60;;
71413;SDS011;59226;53.212;5.728;2023-02-22T08:32:00;21.00;;;6.22;;
71413;SDS011;59226;53.212;5.728;2023-02-22T08:34:26;23.13;;;8.93;;
71413;SDS011;59226;53.212;5.728;2023-02-22T08:36:51;25.83;;;9.00;;
71413;SDS011;59226;53.212;5.728;2023-02-22T08:39:16;23.67;;;6.60;;
71413;SDS011;59226;53.212;5.728;2023-02-22T08:41:42;23.10;;;8.73;;
71413;SDS011;59226;53.212;5.728;2023-02-22T08:44:07;24.47;;;9.27;;
71413;SDS011;59226;53.212;5.728;2023-02-22T08:46:32;27.67;;;9.20;;
71413;SDS011;59226;53.212;5.728;2023-02-22T08:48:57;25.03;;;9.27;;
71413;SDS011;59226;53.212;5.728;2023-02-22T08:51:23;27.07;;;8.83;;
71413;SDS011;59226;53.212;5.728;2023-02-22T08:53:48;22.17;;;8.50;;
71413;SDS011;59226;53.212;5.728;2023-02-22T08:56:13;32.37;;;10.93;;
71413;SDS011;59226;53.212;5.728;2023-02-22T08:58:39;26.87;;;10.13;;
71413;SDS011;59226;53.212;5.728;2023-02-22T09:01:04;31.47;;;10.17;;
71413;SDS011;59226;53.212;5.728;2023-02-22T09:03:29;26.47;;;10.60;;
71413;SDS011;59226;53.212;5.728;2023-02-22T09:05:54;36.23;;;11.23;;
71413;SDS011;59226;53.212;5.728;2023-02-22T09:08:20;30.67;;;10.93;;
71413;SDS011;59226;53.212;5.728;2023-02-22T09:10:45;30.30;;;10.65;;
71413;SDS011;59226;53.212;5.728;2023-02-22T09:13:11;35.40;;;13.17;;
71413;SDS011;59226;53.212;5.728;2023-02-22T09:15:36;36.97;;;11.50;;
71413;SDS011;59226;53.212;5.728;2023-02-22T09:18:03;26.02;;;11.13;;
71413;SDS011;59226;53.212;5.728;2023-02-22T09:20:29;32.57;;;10.97;;
71413;SDS011;59226;53.212;5.728;2023-02-22T09:22:55;26.33;;;11.87;;
71413;SDS011;59226;53.212;5.728;2023-02-22T09:25:20;25.08;;;10.43;;
71413;SDS011;59226;53.212;5.728;2023-02-22T09:27:47;32.73;;;10.67;;
71413;SDS011;59226;53.212;5.728;2023-02-22T09:30:25;35.25;;;12.35;;
71413;SDS011;59226;53.212;5.728;2023-02-22T09:32:51;28.10;;;9.40;;
71413;SDS011;59226;53.212;5.728;2023-02-22T09:35:17;28.47;;;12.20;;
71413;SDS011;59226;53.212;5.728;2023-02-22T09:37:42;30.73;;;11.70;;
71413;SDS011;59226;53.212;5.728;2023-02-22T09:40:13;22.30;;;10.90;;
71413;SDS011;59226;53.212;5.728;2023-02-22T09:42:43;26.10;;;11.63;;
71413;SDS011;59226;53.212;5.728;2023-02-22T09:45:13;20.67;;;9.18;;
71413;SDS011;59226;53.212;5.728;2023-02-22T09:48:13;29.42;;;11.77;;
71413;SDS011;59226;53.212;5.728;2023-02-22T09:50:33;28.45;;;11.18;;
71413;SDS011;59226;53.212;5.728;2023-02-22T09:53:02;26.50;;;10.47;;
71413;SDS011;59226;53.212;5.728;2023-02-22T09:55:41;22.35;;;10.40;;
71413;SDS011;59226;53.212;5.728;2023-02-22T09:58:21;27.98;;;10.27;;
71413;SDS011;59226;53.212;5.728;2023-02-22T10:00:47;42.50;;;13.18;;
71413;SDS011;59226;53.212;5.728;2023-02-22T10:06:13;29.50;;;10.63;;
71413;SDS011;59226;53.212;5.728;2023-02-22T10:08:39;26.45;;;11.23;;
71413;SDS011;59226;53.212;5.728;2023-02-22T10:21:31;29.77;;;9.43;;
71413;SDS011;59226;53.212;5.728;2023-02-22T10:24:04;40.47;;;12.32;;
71413;SDS011;59226;53.212;5.728;2023-02-22T10:26:33;23.27;;;11.68;;
71413;SDS011;59226;53.212;5.728;2023-02-22T10:29:22;37.65;;;10.88;;
71413;SDS011;59226;53.212;5.728;2023-02-22T10:31:58;32.47;;;12.05;;
71413;SDS011;59226;53.212;5.728;2023-02-22T10:34:26;31.00;;;12.60;;
71413;SDS011;59226;53.212;5.728;2023-02-22T10:39:39;26.52;;;10.23;;
71413;SDS011;59226;53.212;5.728;2023-02-22T10:42:06;33.40;;;10.57;;
71413;SDS011;59226;53.212;5.728;2023-02-22T10:44:35;34.08;;;13.32;;
71413;SDS011;59226;53.212;5.728;2023-02-22T10:47:02;26.63;;;10.83;;
71413;SDS011;59226;53.212;5.728;2023-02-22T10:49:30;30.90;;;10.90;;
71413;SDS011;59226;53.212;5.728;2023-02-22T10:52:00;41.33;;;11.73;;
71413;SDS011;59226;53.212;5.728;2023-02-22T10:54:27;28.80;;;10.73;;
71413;SDS011;59226;53.212;5.728;2023-02-22T10:56:54;25.92;;;12.45;;
71413;SDS011;59226;53.212;5.728;2023-02-22T11:01:51;25.48;;;10.10;;
71413;SDS011;59226;53.212;5.728;2023-02-22T11:04:18;33.28;;;11.25;;
71413;SDS011;59226;53.212;5.728;2023-02-22T11:06:44;22.58;;;10.05;;
71413;SDS011;59226;53.212;5.728;2023-02-22T11:09:11;36.27;;;11.03;;
71413;SDS011;59226;53.212;5.728;2023-02-22T11:11:38;22.27;;;8.32;;
71413;SDS011;59226;53.212;5.728;2023-02-22T11:14:04;26.92;;;11.60;;
71413;SDS011;59226;53.212;5.728;2023-02-22T11:18:59;27.73;;;9.73;;
71413;SDS011;59226;53.212;5.728;2023-02-22T11:21:25;27.15;;;9.50;;
71413;SDS011;59226;53.212;5.728;2023-02-22T11:23:50;23.23;;;9.60;;
71413;SDS011;59226;53.212;5.728;2023-02-22T11:26:24;26.50;;;9.63;;
71413;SDS011;59226;53.212;5.728;2023-02-22T11:28:50;30.67;;;10.67;;
71413;SDS011;59226;53.212;5.728;2023-02-22T11:33:46;27.03;;;10.60;;
71413;SDS011;59226;53.212;5.728;2023-02-22T11:36:13;27.73;;;11.35;;
71413;SDS011;59226;53.212;5.728;2023-02-22T11:38:53;32.43;;;10.20;;
71413;SDS011;59226;53.212;5.728;2023-02-22T11:41:20;26.40;;;10.07;;
71413;SDS011;59226;53.212;5.728;2023-02-22T11:43:50;28.77;;;10.02;;
71413;SDS011;59226;53.212;5.728;2023-02-22T11:46:22;22.67;;;10.68;;
71413;SDS011;59226;53.212;5.728;2023-02-22T11:48:57;20.67;;;8.87;;
71413;SDS011;59226;53.212;5.728;2023-02-22T11:51:25;28.88;;;9.35;;
71413;SDS011;59226;53.212;5.728;2023-02-22T11:56:41;26.63;;;10.90;;
71413;SDS011;59226;53.212;5.728;2023-02-22T12:04:34;21.60;;;9.60;;
71413;SDS011;59226;53.212;5.728;2023-02-22T12:07:22;26.80;;;10.27;;
71413;SDS011;59226;53.212;5.728;2023-02-22T12:15:13;31.52;;;9.38;;
71413;SDS011;59226;53.212;5.728;2023-02-22T12:17:52;28.93;;;12.77;;
71413;SDS011;59226;53.212;5.728;2023-02-22T12:20:22;26.45;;;10.55;;
71413;SDS011;59226;53.212;5.728;2023-02-22T12:25:38;26.88;;;10.73;;
71413;SDS011;59226;53.212;5.728;2023-02-22T12:28:12;26.67;;;9.55;;
71413;SDS011;59226;53.212;5.728;2023-02-22T12:30:41;20.73;;;7.73;;
71413;SDS011;59226;53.212;5.728;2023-02-22T12:33:12;31.23;;;8.63;;
71413;SDS011;59226;53.212;5.728;2023-02-22T12:35:39;23.25;;;7.97;;
71413;SDS011;59226;53.212;5.728;2023-02-22T12:40:52;28.60;;;7.72;;
71413;SDS011;59226;53.212;5.728;2023-02-22T12:43:22;21.13;;;7.97;;
71413;SDS011;59226;53.212;5.728;2023-02-22T12:45:53;25.25;;;7.50;;
71413;SDS011;59226;53.212;5.728;2023-02-22T12:53:52;20.23;;;8.18;;
71413;SDS011;59226;53.212;5.728;2023-02-22T13:01:24;28.10;;;10.73;;
71413;SDS011;59226;53.212;5.728;2023-02-22T13:03:52;23.42;;;9.65;;
71413;SDS011;59226;53.212;5.728;2023-02-22T13:26:42;19.77;;;7.88;;
71413;SDS011;59226;53.212;5.728;2023-02-22T13:45:02;32.77;;;8.33;;
71413;SDS011;59226;53.212;5.728;2023-02-22T13:47:50;27.73;;;8.27;;
71413;SDS011;59226;53.212;5.728;2023-02-22T13:53:10;23.55;;;9.60;;
71413;SDS011;59226;53.212;5.728;2023-02-22T13:55:38;27.52;;;10.15;;
71413;SDS011;59226;53.212;5.728;2023-02-22T13:58:05;28.90;;;9.53;;
71413;SDS011;59226;53.212;5.728;2023-02-22T14:00:41;27.40;;;8.88;;
71413;SDS011;59226;53.212;5.728;2023-02-22T14:08:03;33.60;;;9.73;;
71413;SDS011;59226;53.212;5.728;2023-02-22T14:13:04;27.67;;;9.27;;
71413;SDS011;59226;53.212;5.728;2023-02-22T14:15:30;21.25;;;7.95;;
71413;SDS011;59226;53.212;5.728;2023-02-22T14:17:58;28.73;;;9.67;;
71413;SDS011;59226;53.212;5.728;2023-02-22T14:22:57;31.00;;;9.93;;
71413;SDS011;59226;53.212;5.728;2023-02-22T14:25:39;24.90;;;8.98;;
71413;SDS011;59226;53.212;5.728;2023-02-22T14:28:06;28.00;;;9.57;;
71413;SDS011;59226;53.212;5.728;2023-02-22T14:30:36;29.98;;;10.25;;
71413;SDS011;59226;53.212;5.728;2023-02-22T14:33:02;35.90;;;8.73;;
71413;SDS011;59226;53.212;5.728;2023-02-22T14:35:29;28.33;;;9.23;;
71413;SDS011;59226;53.212;5.728;2023-02-22T14:37:57;25.15;;;9.35;;
71413;SDS011;59226;53.212;5.728;2023-02-22T14:40:26;31.83;;;9.77;;
71413;SDS011;59226;53.212;5.728;2023-02-22T14:43:00;26.33;;;9.23;;
71413;SDS011;59226;53.212;5.728;2023-02-22T14:45:28;24.10;;;9.07;;
71413;SDS011;59226;53.212;5.728;2023-02-22T14:55:46;25.90;;;9.50;;
71413;SDS011;59226;53.212;5.728;2023-02-22T14:58:58;29.10;;;8.40;;
71413;SDS011;59226;53.212;5.728;2023-02-22T15:03:47;28.30;;;9.90;;
71413;SDS011;59226;53.212;5.728;2023-02-22T15:06:16;26.13;;;8.03;;
71413;SDS011;59226;53.212;5.728;2023-02-22T15:08:43;25.48;;;10.75;;
71413;SDS011;59226;53.212;5.728;2023-02-22T15:11:33;29.27;;;8.65;;
71413;SDS011;59226;53.212;5.728;2023-02-22T15:13:58;30.17;;;9.70;;
71413;SDS011;59226;53.212;5.728;2023-02-22T15:16:25;28.20;;;9.15;;
71413;SDS011;59226;53.212;5.728;2023-02-22T15:18:52;27.15;;;8.10;;
71413;SDS011;59226;53.212;5.728;2023-02-22T15:21:19;31.92;;;8.98;;
71413;SDS011;59226;53.212;5.728;2023-02-22T15:26:17;27.27;;;7.53;;
71413;SDS011;59226;53.212;5.728;2023-02-22T15:28:43;27.25;;;10.30;;
71413;SDS011;59226;53.212;5.728;2023-02-22T15:36:38;26.05;;;7.65;;
71413;SDS011;59226;53.212;5.728;2023-02-22T15:39:04;28.93;;;8.97;;
71413;SDS011;59226;53.212;5.728;2023-02-22T15:41:33;28.95;;;9.10;;
71413;SDS011;59226;53.212;5.728;2023-02-22T15:46:24;18.33;;;7.40;;
71413;SDS011;59226;53.212;5.728;2023-02-22T15:51:34;23.00;;;8.82;;
71413;SDS011;59226;53.212;5.728;2023-02-22T15:54:01;24.88;;;7.70;;
71413;SDS011;59226;53.212;5.728;2023-02-22T15:56:27;24.60;;;7.87;;
71413;SDS011;59226;53.212;5.728;2023-02-22T15:59:00;22.65;;;7.82;;
71413;SDS011;59226;53.212;5.728;2023-02-22T16:01:27;27.85;;;8.63;;
71413;SDS011;59226;53.212;5.728;2023-02-22T16:03:55;21.63;;;7.53;;
71413;SDS011;59226;53.212;5.728;2023-02-22T16:08:46;21.77;;;8.03;;
71413;SDS011;59226;53.212;5.728;2023-02-22T16:11:35;30.07;;;9.93;;
71413;SDS011;59226;53.212;5.728;2023-02-22T16:13:59;21.10;;;8.20;;
71413;SDS011;59226;53.212;5.728;2023-02-22T16:16:37;25.67;;;8.52;;
71413;SDS011;59226;53.212;5.728;2023-02-22T16:21:54;27.88;;;7.63;;
71413;SDS011;59226;53.212;5.728;2023-02-22T16:24:32;28.90;;;8.40;;
71413;SDS011;59226;53.212;5.728;2023-02-22T16:27:06;20.83;;;7.63;;
71413;SDS011;59226;53.212;5.728;2023-02-22T16:29:39;28.05;;;8.48;;
71413;SDS011;59226;53.212;5.728;2023-02-22T16:32:05;20.70;;;7.43;;
71413;SDS011;59226;53.212;5.728;2023-02-22T16:34:30;18.73;;;6.70;;
71413;SDS011;59226;53.212;5.728;2023-02-22T16:36:55;27.53;;;9.13;;
71413;SDS011;59226;53.212;5.728;2023-02-22T16:41:51;30.63;;;8.10;;
71413;SDS011;59226;53.212;5.728;2023-02-22T16:44:16;26.00;;;9.55;;
71413;SDS011;59226;53.212;5.728;2023-02-22T16:46:42;23.60;;;8.23;;
71413;SDS011;59226;53.212;5.728;2023-02-22T16:49:11;27.38;;;7.95;;
71413;SDS011;59226;53.212;5.728;2023-02-22T16:51:41;26.37;;;7.07;;
71413;SDS011;59226;53.212;5.728;2023-02-22T16:54:08;21.70;;;6.65;;
71413;SDS011;59226;53.212;5.728;2023-02-22T16:56:34;19.20;;;8.40;;
71413;SDS011;59226;53.212;5.728;2023-02-22T16:59:07;26.93;;;7.77;;
71413;SDS011;59226;53.212;5.728;2023-02-22T17:01:33;26.25;;;8.63;;
71413;SDS011;59226;53.212;5.728;2023-02-22T17:03:58;28.30;;;8.00;;
71413;SDS011;59226;53.212;5.728;2023-02-22T17:06:23;33.43;;;8.53;;
71413;SDS011;59226;53.212;5.728;2023-02-22T17:08:48;22.43;;;8.47;;
71413;SDS011;59226;53.212;5.728;2023-02-22T17:11:15;18.08;;;6.03;;
71413;SDS011;59226;53.212;5.728;2023-02-22T17:13:41;22.37;;;7.47;;
71413;SDS011;59226;53.212;5.728;2023-02-22T17:16:08;22.37;;;7.77;;
71413;SDS011;59226;53.212;5.728;2023-02-22T17:18:34;19.35;;;7.28;;
71413;SDS011;59226;53.212;5.728;2023-02-22T17:21:00;21.30;;;10.70;;
71413;SDS011;59226;53.212;5.728;2023-02-22T17:23:28;27.92;;;8.55;;